Time;durP1;ratioP1;P1;durP2;ratioP2;P2;SDS_P1;SDS_P2;PMS_P1;PMS_P2;Temp;Humidity;BMP_temperature;BMP_pressure;BME280_temperature;BME280_humidity;BME280_pressure;Samples;Min_cycle;Max_cycle;Signal;HPM_P1;HPM_P2
2021/12/03 00:01:21;;;;;;;28.53;18.63;;;3.80;99.90;;;;;;5008417;28;20178;-69
2021/12/03 00:03:48;;;;;;;25.10;18.77;;;3.80;99.90;;;;;;5010492;28;20199;-69
2021/12/03 00:06:14;;;;;;;24.90;19.30;;;3.90;99.90;;;;;;5008361;28;20438;-68
2021/12/03 00:08:40;;;;;;;26.50;20.40;;;3.90;99.90;;;;;;5012875;28;20472;-69
2021/12/03 00:11:09;;;;;;;30.37;21.50;;;3.90;99.90;;;;;;5012665;28;20409;-71
2021/12/03 00:13:35;;;;;;;28.83;21.47;;;3.80;99.90;;;;;;4995017;28;20424;-70
2021/12/03 00:16:01;;;;;;;26.93;21.63;;;3.80;99.90;;;;;;5011719;28;20449;-70
2021/12/03 00:18:27;;;;;;;38.87;25.20;;;3.80;99.90;;;;;;5012662;28;20233;-69
2021/12/03 00:20:53;;;;;;;26.70;21.97;;;3.80;99.90;;;;;;5011936;28;20804;-69
2021/12/03 00:23:21;;;;;;;28.80;21.90;;;3.80;99.90;;;;;;5012458;28;20206;-69
2021/12/03 00:25:47;;;;;;;30.50;22.67;;;3.80;99.90;;;;;;5012442;28;20322;-69
2021/12/03 00:28:12;;;;;;;25.30;21.03;;;3.90;99.90;;;;;;4994882;28;20422;-68
2021/12/03 00:30:38;;;;;;;28.67;19.93;;;3.90;99.90;;;;;;5012226;28;20528;-69
2021/12/03 00:33:05;;;;;;;30.37;21.07;;;4.00;99.90;;;;;;5010635;28;20184;-70
2021/12/03 00:35:32;;;;;;;29.57;21.50;;;4.10;99.90;;;;;;5012034;28;20179;-69
2021/12/03 00:37:58;;;;;;;31.37;22.20;;;4.10;99.90;;;;;;5012642;28;20450;-68
2021/12/03 00:40:30;;;;;;;30.83;22.07;;;4.10;99.90;;;;;;5008914;28;20453;-69
2021/12/03 00:42:56;;;;;;;32.20;23.70;;;4.10;99.90;;;;;;4992891;28;20451;-69
2021/12/03 00:45:22;;;;;;;37.53;24.23;;;4.00;99.90;;;;;;4997927;28;20812;-68
2021/12/03 00:47:49;;;;;;;31.80;23.97;;;3.90;99.90;;;;;;5011970;28;20444;-70
2021/12/03 00:50:18;;;;;;;34.40;25.27;;;3.90;99.90;;;;;;4994183;28;20424;-70
2021/12/03 00:52:44;;;;;;;36.87;25.27;;;3.90;99.90;;;;;;5012264;28;20422;-69
2021/12/03 00:55:10;;;;;;;32.87;23.37;;;3.90;99.90;;;;;;5011658;28;20424;-70
2021/12/03 00:57:36;;;;;;;33.30;25.10;;;3.90;99.90;;;;;;5011865;28;20473;-70
2021/12/03 01:00:06;;;;;;;33.60;24.63;;;4.00;99.90;;;;;;5006482;28;20526;-70
2021/12/03 01:02:31;;;;;;;36.67;25.90;;;3.90;99.90;;;;;;5010486;28;20414;-69
2021/12/03 01:04:57;;;;;;;38.30;26.73;;;3.90;99.90;;;;;;5011352;28;20414;-70
2021/12/03 01:07:22;;;;;;;40.13;25.63;;;3.80;99.90;;;;;;5012246;28;20549;-69
2021/12/03 01:09:48;;;;;;;38.80;26.93;;;3.80;99.90;;;;;;5011991;28;20543;-70
2021/12/03 01:12:14;;;;;;;33.27;24.80;;;3.90;99.90;;;;;;5010572;28;20177;-69
2021/12/03 01:14:39;;;;;;;36.27;25.37;;;3.90;99.90;;;;;;5012232;28;20170;-70
2021/12/03 01:17:06;;;;;;;36.47;25.70;;;3.80;99.90;;;;;;5011600;28;20221;-70
2021/12/03 01:19:32;;;;;;;36.83;26.50;;;3.80;99.90;;;;;;5012501;28;20550;-69
2021/12/03 01:21:57;;;;;;;31.67;24.50;;;3.70;99.90;;;;;;5012198;28;20529;-69
2021/12/03 01:24:23;;;;;;;34.97;24.70;;;3.70;99.90;;;;;;5011699;28;20283;-70
2021/12/03 01:26:53;;;;;;;34.80;25.73;;;3.70;99.90;;;;;;5008143;28;20193;-69
2021/12/03 01:29:19;;;;;;;30.50;24.07;;;3.80;99.90;;;;;;4992514;28;20175;-69
2021/12/03 01:31:45;;;;;;;37.20;25.10;;;3.70;99.90;;;;;;4993246;28;20906;-70
2021/12/03 01:34:10;;;;;;;32.33;23.57;;;3.80;99.90;;;;;;4996034;28;20198;-69
2021/12/03 01:36:36;;;;;;;37.83;24.73;;;3.70;99.90;;;;;;4995374;28;20212;-69
2021/12/03 01:39:02;;;;;;;30.63;23.13;;;3.70;99.90;;;;;;4996192;28;20214;-70
2021/12/03 01:41:28;;;;;;;32.80;23.73;;;3.70;99.90;;;;;;4996176;28;20272;-70
2021/12/03 01:44:00;;;;;;;28.43;22.47;;;3.70;99.90;;;;;;4978832;28;20544;-70
2021/12/03 01:46:25;;;;;;;40.03;24.00;;;3.80;99.90;;;;;;4979110;28;20523;-69
2021/12/03 01:48:51;;;;;;;32.23;23.10;;;3.70;99.90;;;;;;4995868;28;20437;-69
2021/12/03 01:51:19;;;;;;;33.90;24.13;;;3.60;99.90;;;;;;4996025;28;20170;-69
2021/12/03 01:53:45;;;;;;;34.13;24.03;;;3.60;99.90;;;;;;4995964;28;20176;-69
2021/12/03 01:56:13;;;;;;;32.67;24.07;;;3.60;99.90;;;;;;4995550;28;20599;-69
2021/12/03 01:58:40;;;;;;;33.57;24.67;;;3.60;99.90;;;;;;4996195;28;20781;-69
2021/12/03 02:01:10;;;;;;;35.13;25.33;;;3.60;99.90;;;;;;5015601;28;20576;-69
2021/12/03 02:03:37;;;;;;;34.60;23.70;;;3.70;99.90;;;;;;4997780;28;20464;-69
2021/12/03 02:06:05;;;;;;;39.70;25.67;;;3.80;99.90;;;;;;4997216;28;20452;-69
2021/12/03 02:08:30;;;;;;;34.27;24.63;;;3.70;99.90;;;;;;5015553;28;20418;-69
2021/12/03 02:10:57;;;;;;;35.80;23.80;;;3.70;99.90;;;;;;5015469;28;20409;-70
2021/12/03 02:13:22;;;;;;;35.30;24.30;;;3.80;99.90;;;;;;5014597;28;20922;-69
2021/12/03 02:15:48;;;;;;;32.40;23.33;;;3.70;99.90;;;;;;5012733;28;20448;-69
2021/12/03 02:18:16;;;;;;;36.47;24.67;;;3.70;99.90;;;;;;5015854;28;20429;-69
2021/12/03 02:20:46;;;;;;;37.00;25.40;;;3.80;99.90;;;;;;4998823;28;20274;-69
2021/12/03 02:23:13;;;;;;;33.70;23.93;;;3.80;99.90;;;;;;5016805;28;20964;-69
2021/12/03 02:25:39;;;;;;;35.97;25.83;;;3.70;99.90;;;;;;5015916;28;20437;-69
2021/12/03 02:28:05;;;;;;;34.80;24.40;;;3.80;99.90;;;;;;5015516;28;20915;-69
2021/12/03 02:30:31;;;;;;;38.40;25.80;;;3.80;99.90;;;;;;5015028;28;20419;-69
2021/12/03 02:32:57;;;;;;;36.97;24.53;;;3.90;99.90;;;;;;5013866;28;20714;-69
2021/12/03 02:35:23;;;;;;;33.93;23.43;;;3.90;99.90;;;;;;5014423;28;20425;-68
2021/12/03 02:37:50;;;;;;;37.87;25.37;;;3.90;99.90;;;;;;5014537;28;20190;-69
2021/12/03 02:40:16;;;;;;;39.13;26.40;;;3.80;99.90;;;;;;5014405;28;20412;-70
2021/12/03 02:42:43;;;;;;;38.60;23.50;;;3.80;99.90;;;;;;5014214;28;20459;-69
2021/12/03 02:45:10;;;;;;;38.23;25.70;;;3.80;99.90;;;;;;4980421;28;20811;-69
2021/12/03 02:47:36;;;;;;;36.83;24.10;;;3.80;99.90;;;;;;5014009;28;20528;-69
2021/12/03 02:50:04;;;;;;;40.30;26.30;;;3.80;99.90;;;;;;5014142;28;20491;-69
2021/12/03 02:52:30;;;;;;;39.80;26.10;;;3.80;99.90;;;;;;5013995;28;20518;-69
2021/12/03 02:54:55;;;;;;;37.43;25.67;;;3.80;99.90;;;;;;4988742;28;20504;-70
2021/12/03 02:57:21;;;;;;;37.17;23.50;;;3.80;99.90;;;;;;4977033;28;20234;-70
2021/12/03 02:59:47;;;;;;;38.37;24.43;;;3.70;99.90;;;;;;4994119;28;20174;-69
2021/12/03 03:02:12;;;;;;;33.13;25.07;;;3.70;99.90;;;;;;4994466;28;20211;-70
2021/12/03 03:04:38;;;;;;;31.90;21.77;;;3.70;99.90;;;;;;4992305;28;20578;-70
2021/12/03 03:07:04;;;;;;;41.70;24.97;;;3.60;99.90;;;;;;4993807;28;20199;-69
2021/12/03 03:09:31;;;;;;;40.40;25.13;;;3.70;99.90;;;;;;4993987;28;20175;-69
2021/12/03 03:11:58;;;;;;;33.70;21.57;;;3.80;99.90;;;;;;5006964;28;20515;-69
2021/12/03 03:14:23;;;;;;;40.13;22.87;;;3.80;99.90;;;;;;5015300;28;20425;-69
2021/12/03 03:16:50;;;;;;;40.17;24.70;;;3.70;99.90;;;;;;5014560;28;20515;-69
2021/12/03 03:19:18;;;;;;;34.67;22.77;;;3.80;99.90;;;;;;5015209;28;20558;-68
2021/12/03 03:21:45;;;;;;;33.43;21.13;;;3.80;99.90;;;;;;5014060;28;20467;-68
2021/12/03 03:24:11;;;;;;;36.40;23.10;;;3.80;99.90;;;;;;5013235;28;20466;-69
2021/12/03 03:26:40;;;;;;;36.67;23.07;;;3.80;99.90;;;;;;5013279;28;20456;-69
2021/12/03 03:29:08;;;;;;;40.67;24.40;;;3.90;99.90;;;;;;5013244;28;20491;-69
2021/12/03 03:31:36;;;;;;;29.10;20.50;;;3.90;99.90;;;;;;5013288;28;20409;-69
2021/12/03 03:34:03;;;;;;;38.67;24.40;;;3.80;99.90;;;;;;5013459;28;20470;-69
2021/12/03 03:36:35;;;;;;;34.80;20.97;;;3.80;99.90;;;;;;5012575;28;20437;-69
2021/12/03 03:39:02;;;;;;;34.13;23.10;;;3.80;99.90;;;;;;5013403;28;20504;-69
2021/12/03 03:41:27;;;;;;;38.57;22.20;;;3.80;99.90;;;;;;4995565;28;20476;-69
2021/12/03 03:43:53;;;;;;;33.13;22.70;;;3.70;99.90;;;;;;5011685;28;20461;-69
2021/12/03 03:46:19;;;;;;;33.53;23.03;;;3.60;99.90;;;;;;4994919;28;20188;-69
2021/12/03 03:48:45;;;;;;;37.80;23.67;;;3.60;99.90;;;;;;5013199;28;20417;-69
2021/12/03 03:51:11;;;;;;;39.33;23.10;;;3.70;99.90;;;;;;5012848;28;20777;-69
2021/12/03 03:53:38;;;;;;;32.70;21.27;;;3.80;99.90;;;;;;5013156;28;20640;-69
2021/12/03 03:56:05;;;;;;;37.03;22.23;;;3.80;99.90;;;;;;5012081;28;20596;-69
2021/12/03 03:58:31;;;;;;;36.23;24.23;;;3.90;99.90;;;;;;5012961;28;20473;-69
2021/12/03 04:00:57;;;;;;;29.53;21.67;;;3.80;99.90;;;;;;5003475;28;20976;-69
2021/12/03 04:03:23;;;;;;;33.93;21.90;;;3.60;99.90;;;;;;4992932;28;20209;-69
2021/12/03 04:05:49;;;;;;;31.20;22.90;;;3.70;99.90;;;;;;4992597;28;20429;-69
2021/12/03 04:08:15;;;;;;;34.77;21.53;;;3.70;99.90;;;;;;4975429;28;21001;-69
2021/12/03 04:10:40;;;;;;;36.30;22.27;;;3.80;99.90;;;;;;4992680;28;20194;-69
2021/12/03 04:13:06;;;;;;;36.90;22.80;;;3.90;99.90;;;;;;4993035;28;20178;-69
2021/12/03 04:15:31;;;;;;;30.43;22.00;;;3.90;99.90;;;;;;4992605;28;20218;-69
2021/12/03 04:17:57;;;;;;;34.67;20.93;;;3.80;99.90;;;;;;4993974;28;20197;-69
2021/12/03 04:20:22;;;;;;;37.07;21.27;;;3.80;99.90;;;;;;4992903;28;20255;-69
2021/12/03 04:22:49;;;;;;;31.37;21.43;;;3.90;99.90;;;;;;4975156;28;20230;-68
2021/12/03 04:25:17;;;;;;;41.57;21.90;;;3.80;99.90;;;;;;4992987;28;20188;-68
2021/12/03 04:27:44;;;;;;;34.17;22.53;;;3.80;99.90;;;;;;4992344;28;20435;-70
2021/12/03 04:30:14;;;;;;;34.77;20.43;;;3.70;99.90;;;;;;4993024;28;20799;-69
2021/12/03 04:32:40;;;;;;;29.73;21.37;;;3.60;99.90;;;;;;4977518;28;20507;-69
2021/12/03 04:35:07;;;;;;;35.97;20.20;;;3.70;99.90;;;;;;4994603;28;20478;-68
2021/12/03 04:37:32;;;;;;;32.30;18.77;;;3.80;99.90;;;;;;5012006;28;20440;-69
2021/12/03 04:39:58;;;;;;;28.70;19.80;;;3.70;99.90;;;;;;5012303;28;20509;-68
2021/12/03 04:42:23;;;;;;;28.90;19.83;;;3.70;99.90;;;;;;5011775;28;20181;-69
2021/12/03 04:44:49;;;;;;;29.70;19.80;;;3.80;99.90;;;;;;4993936;28;20287;-70
2021/12/03 04:47:15;;;;;;;32.23;20.23;;;3.80;99.90;;;;;;5011992;28;20224;-70
2021/12/03 04:49:40;;;;;;;33.80;20.77;;;3.80;99.90;;;;;;5012452;28;20646;-69
2021/12/03 04:52:06;;;;;;;34.23;21.13;;;3.80;99.90;;;;;;5012405;28;20535;-69
2021/12/03 04:54:33;;;;;;;36.30;20.33;;;3.80;99.90;;;;;;5010574;28;20234;-69
2021/12/03 04:56:58;;;;;;;32.40;18.67;;;3.90;99.90;;;;;;5011554;28;20845;-69
2021/12/03 04:59:24;;;;;;;31.77;20.17;;;3.90;99.90;;;;;;5048623;22;20577;-70
2021/12/03 05:01:54;;;;;;;26.50;19.10;;;3.90;99.90;;;;;;5040493;28;20179;-71
2021/12/03 05:04:19;;;;;;;31.90;18.77;;;4.00;99.90;;;;;;5036511;28;20512;-70
2021/12/03 05:09:20;;;;;;;32.60;18.90;;;3.90;99.90;;;;;;5055687;28;20207;-69
2021/12/03 05:11:46;;;;;;;32.20;19.70;;;4.00;99.90;;;;;;5055380;28;20773;-70
2021/12/03 05:14:12;;;;;;;27.60;18.30;;;4.10;99.90;;;;;;5055211;28;20450;-70
2021/12/03 05:16:38;;;;;;;29.73;20.70;;;4.10;99.90;;;;;;5047760;28;20432;-70
2021/12/03 05:19:03;;;;;;;27.13;18.50;;;4.00;99.90;;;;;;5035442;28;20205;-70
2021/12/03 05:21:29;;;;;;;29.80;17.50;;;4.00;99.90;;;;;;5035350;28;20223;-70
2021/12/03 05:23:55;;;;;;;26.70;18.70;;;4.10;99.90;;;;;;5035259;28;20203;-70
2021/12/03 05:26:20;;;;;;;28.80;19.00;;;4.10;99.90;;;;;;5035175;28;20264;-69
2021/12/03 05:28:46;;;;;;;28.50;18.00;;;4.00;99.90;;;;;;5035842;28;20247;-70
2021/12/03 05:31:12;;;;;;;29.13;18.00;;;4.00;99.90;;;;;;5039839;28;20424;-70
2021/12/03 05:33:37;;;;;;;25.63;16.80;;;4.00;99.90;;;;;;5054880;28;20604;-70
2021/12/03 05:36:03;;;;;;;28.77;18.60;;;4.00;99.90;;;;;;5054575;28;20269;-70
2021/12/03 05:38:29;;;;;;;27.37;18.07;;;4.00;99.90;;;;;;5042989;28;20193;-71
2021/12/03 05:40:54;;;;;;;28.03;17.73;;;3.90;99.90;;;;;;5038248;28;20175;-70
2021/12/03 05:43:20;;;;;;;23.27;17.03;;;3.90;99.90;;;;;;5054178;28;20228;-69
2021/12/03 05:45:46;;;;;;;21.00;14.60;;;3.90;99.90;;;;;;5055053;28;20169;-70
2021/12/03 05:48:13;;;;;;;22.80;15.50;;;3.80;99.90;;;;;;5051242;28;20191;-70
2021/12/03 05:50:39;;;;;;;26.67;16.57;;;3.90;99.90;;;;;;5018638;28;20451;-69
2021/12/03 05:53:05;;;;;;;30.23;18.10;;;3.90;99.90;;;;;;5053476;28;20904;-69
2021/12/03 05:55:30;;;;;;;34.00;18.80;;;3.90;99.90;;;;;;5054389;28;20419;-69
2021/12/03 05:57:56;;;;;;;29.17;15.70;;;4.00;99.90;;;;;;5046303;28;20604;-70
2021/12/03 06:00:28;;;;;;;25.70;15.70;;;4.00;99.90;;;;;;5046427;28;20329;-70
2021/12/03 06:02:55;;;;;;;21.50;15.33;;;4.10;99.90;;;;;;5050300;28;20464;-69
2021/12/03 06:05:23;;;;;;;23.37;15.20;;;4.00;99.90;;;;;;5053202;28;20424;-69
2021/12/03 06:07:48;;;;;;;23.23;15.67;;;4.00;99.90;;;;;;5054465;28;20423;-70
2021/12/03 06:10:14;;;;;;;21.67;15.40;;;4.00;99.90;;;;;;5051832;28;20447;-69
2021/12/03 06:12:40;;;;;;;31.40;16.70;;;4.00;99.90;;;;;;5052765;28;20191;-70
2021/12/03 06:15:05;;;;;;;24.80;16.00;;;4.00;99.90;;;;;;5052354;28;20580;-69
2021/12/03 06:17:31;;;;;;;22.53;14.77;;;3.90;99.90;;;;;;5051932;28;20188;-69
2021/12/03 06:19:57;;;;;;;23.77;15.27;;;3.90;99.90;;;;;;5051404;28;20452;-70
2021/12/03 06:22:22;;;;;;;24.90;16.30;;;3.90;99.90;;;;;;5051562;28;20212;-69
2021/12/03 06:24:48;;;;;;;25.37;16.50;;;3.90;99.90;;;;;;5024603;28;20225;-69
2021/12/03 06:27:14;;;;;;;23.97;14.63;;;4.00;99.90;;;;;;5053288;28;20264;-69
2021/12/03 06:29:40;;;;;;;25.90;16.27;;;4.00;99.90;;;;;;5042457;28;20754;-69
2021/12/03 06:32:09;;;;;;;28.97;16.50;;;4.00;99.90;;;;;;5045759;28;20478;-71
2021/12/03 06:34:35;;;;;;;31.97;17.17;;;4.00;99.90;;;;;;5052397;28;20217;-69
2021/12/03 06:37:01;;;;;;;26.23;16.30;;;4.00;99.90;;;;;;5050330;28;20456;-70
2021/12/03 06:39:26;;;;;;;25.80;16.00;;;4.10;99.90;;;;;;5057716;28;20461;-69
2021/12/03 06:41:52;;;;;;;24.77;16.10;;;4.00;99.90;;;;;;5051714;28;20214;-70
2021/12/03 06:44:17;;;;;;;25.70;15.80;;;4.00;99.90;;;;;;5035116;28;20586;-69
2021/12/03 06:46:43;;;;;;;26.30;16.97;;;4.10;99.90;;;;;;5065933;28;20220;-70
2021/12/03 06:49:09;;;;;;;24.17;16.53;;;4.00;99.90;;;;;;5065769;28;20213;-70
2021/12/03 06:51:40;;;;;;;26.73;14.97;;;4.00;99.90;;;;;;5058325;28;20274;-70
2021/12/03 06:54:08;;;;;;;21.93;14.97;;;4.10;99.90;;;;;;5034067;28;20215;-70
2021/12/03 06:56:51;;;;;;;24.07;15.80;;;4.20;99.90;;;;;;5063817;28;20441;-72
2021/12/03 06:59:21;;;;;;;31.83;17.93;;;4.20;99.90;;;;;;5060367;28;20453;-72
2021/12/03 07:01:47;;;;;;;26.93;17.40;;;4.10;99.90;;;;;;5073323;28;20884;-71
2021/12/03 07:04:13;;;;;;;28.73;16.80;;;4.10;99.90;;;;;;5068835;28;20470;-71
2021/12/03 07:06:42;;;;;;;31.20;17.63;;;4.00;99.90;;;;;;5071842;28;20451;-70
2021/12/03 07:09:07;;;;;;;27.50;16.37;;;4.00;99.90;;;;;;5056299;28;20668;-70
2021/12/03 07:11:33;;;;;;;32.40;16.53;;;4.00;99.90;;;;;;5068871;28;20515;-72
2021/12/03 07:14:08;;;;;;;29.73;17.83;;;4.10;99.90;;;;;;5042825;28;20418;-70
2021/12/03 07:16:34;;;;;;;27.70;17.63;;;4.20;99.90;;;;;;5035843;28;20269;-71
2021/12/03 07:18:59;;;;;;;27.53;17.93;;;4.20;99.90;;;;;;5053336;28;20467;-70
2021/12/03 07:21:25;;;;;;;31.93;18.77;;;4.30;99.90;;;;;;5052953;28;20209;-70
2021/12/03 07:23:51;;;;;;;32.60;16.27;;;4.30;99.90;;;;;;5051157;28;20268;-71
2021/12/03 07:26:18;;;;;;;27.90;16.90;;;4.30;99.90;;;;;;5052219;28;20415;-70
2021/12/03 07:28:44;;;;;;;30.50;17.40;;;4.40;99.90;;;;;;5057069;28;20267;-71
2021/12/03 07:31:11;;;;;;;29.50;16.07;;;4.40;99.90;;;;;;5072488;28;20960;-71
2021/12/03 07:33:37;;;;;;;24.57;16.27;;;4.40;99.90;;;;;;5072502;28;20927;-70
2021/12/03 07:36:05;;;;;;;26.47;17.17;;;4.30;99.90;;;;;;5042663;28;20890;-70
2021/12/03 07:38:31;;;;;;;20.27;14.80;;;4.30;99.90;;;;;;5032416;28;20450;-70
2021/12/03 07:40:56;;;;;;;28.93;15.40;;;4.30;99.90;;;;;;5015456;28;20476;-69
2021/12/03 07:43:22;;;;;;;21.83;13.90;;;4.30;99.90;;;;;;5032584;28;20279;-70
2021/12/03 07:45:48;;;;;;;25.00;14.57;;;4.30;99.90;;;;;;5033182;28;20658;-70
2021/12/03 07:48:14;;;;;;;19.70;14.43;;;4.30;99.90;;;;;;5031971;28;20201;-70
2021/12/03 07:50:41;;;;;;;25.47;14.37;;;4.30;99.90;;;;;;5032298;28;20425;-70
2021/12/03 07:53:09;;;;;;;22.07;13.13;;;4.30;99.90;;;;;;5032149;28;20644;-71
2021/12/03 07:55:35;;;;;;;23.37;15.20;;;4.30;99.90;;;;;;5031722;28;20414;-70
2021/12/03 07:58:03;;;;;;;21.30;13.80;;;4.40;99.90;;;;;;5033268;28;20519;-70
2021/12/03 08:00:29;;;;;;;20.87;13.37;;;4.40;99.90;;;;;;5031904;28;20471;-70
2021/12/03 08:02:55;;;;;;;21.83;12.87;;;4.40;99.90;;;;;;5043884;28;20482;-71
2021/12/03 08:05:20;;;;;;;19.43;12.70;;;4.40;99.90;;;;;;5072111;28;20758;-69
2021/12/03 08:07:47;;;;;;;17.17;11.63;;;4.40;99.90;;;;;;5057782;28;20214;-71
2021/12/03 08:10:15;;;;;;;20.00;12.60;;;4.40;99.90;;;;;;5051852;28;20730;-71
2021/12/03 08:12:45;;;;;;;16.30;11.10;;;4.50;99.90;;;;;;5052145;28;20551;-71
2021/12/03 08:15:11;;;;;;;18.40;12.77;;;4.50;99.90;;;;;;5034484;28;20873;-71
2021/12/03 08:17:38;;;;;;;16.97;13.00;;;4.60;99.90;;;;;;5045861;28;20822;-70
2021/12/03 08:20:05;;;;;;;18.87;13.50;;;4.60;99.90;;;;;;5032059;28;20435;-69
2021/12/03 08:22:31;;;;;;;20.10;13.00;;;4.60;99.90;;;;;;5031815;28;20495;-70
2021/12/03 08:24:56;;;;;;;20.53;12.17;;;4.60;99.90;;;;;;5031833;28;20476;-70
2021/12/03 08:27:22;;;;;;;17.40;12.30;;;4.60;99.90;;;;;;5031634;28;20182;-71
2021/12/03 08:29:48;;;;;;;18.90;12.50;;;4.60;99.90;;;;;;5032412;28;20194;-70
2021/12/03 08:32:13;;;;;;;18.70;10.73;;;4.60;99.90;;;;;;5031995;28;20209;-70
2021/12/03 08:34:39;;;;;;;15.07;10.40;;;4.60;99.90;;;;;;5032640;28;20220;-70
2021/12/03 08:37:07;;;;;;;19.20;10.67;;;4.70;99.90;;;;;;5033442;28;20616;-70
2021/12/03 08:39:33;;;;;;;13.47;10.10;;;4.70;99.90;;;;;;5015900;28;20531;-72
2021/12/03 08:41:59;;;;;;;13.13;9.57;;;4.80;99.90;;;;;;5047699;28;20806;-70
2021/12/03 08:44:25;;;;;;;19.60;10.80;;;4.80;99.90;;;;;;5051740;28;20449;-70
2021/12/03 08:46:56;;;;;;;15.40;9.13;;;4.80;99.90;;;;;;5051480;28;20177;-70
2021/12/03 08:49:37;;;;;;;14.17;9.50;;;4.90;99.90;;;;;;5051893;28;20205;-70
2021/12/03 08:54:52;;;;;;;14.23;9.53;;;4.80;99.90;;;;;;5051676;28;20494;-71
2021/12/03 08:57:21;;;;;;;15.37;9.57;;;4.70;99.90;;;;;;5051347;28;20900;-68
2021/12/03 08:59:48;;;;;;;16.50;8.93;;;4.70;99.90;;;;;;5051173;28;20459;-70
2021/12/03 09:02:13;;;;;;;17.07;8.53;;;4.70;99.90;;;;;;5049769;28;20774;-71
2021/12/03 09:04:39;;;;;;;14.27;8.20;;;4.80;99.90;;;;;;5071308;28;20458;-71
2021/12/03 09:07:05;;;;;;;14.90;7.93;;;4.80;99.90;;;;;;5053240;28;20290;-69
2021/12/03 09:09:32;;;;;;;15.10;7.57;;;4.80;99.90;;;;;;5071901;28;20208;-70
2021/12/03 09:11:57;;;;;;;11.70;7.53;;;4.70;99.90;;;;;;5068140;28;20400;-70
2021/12/03 09:14:28;;;;;;;10.07;7.13;;;4.60;99.90;;;;;;5031681;28;20420;-71
2021/12/03 09:17:01;;;;;;;11.97;6.33;;;4.60;99.90;;;;;;5014045;28;20535;-72
2021/12/03 09:19:33;;;;;;;10.97;6.47;;;4.70;99.90;;;;;;5031439;28;20474;-71
2021/12/03 09:21:59;;;;;;;9.67;5.77;;;4.70;99.90;;;;;;5032553;28;20421;-70
2021/12/03 09:24:32;;;;;;;13.97;6.23;;;4.70;99.90;;;;;;5034731;28;20974;-71
2021/12/03 09:26:58;;;;;;;8.00;6.00;;;4.80;99.90;;;;;;5033363;28;20225;-72
2021/12/03 09:29:30;;;;;;;9.93;5.50;;;4.90;99.90;;;;;;5032364;28;20766;-71
2021/12/03 09:31:57;;;;;;;9.10;5.40;;;4.90;99.90;;;;;;5032784;28;20394;-71
2021/12/03 09:34:24;;;;;;;8.43;5.60;;;5.00;99.90;;;;;;5032935;28;20500;-72
2021/12/03 09:36:50;;;;;;;8.83;5.97;;;5.10;99.90;;;;;;5032475;28;20419;-70
2021/12/03 09:39:20;;;;;;;11.17;6.17;;;5.00;99.90;;;;;;5032669;28;20431;-70
2021/12/03 09:41:46;;;;;;;7.97;5.20;;;5.10;99.90;;;;;;5032610;28;20415;-71
2021/12/03 09:44:12;;;;;;;8.10;5.10;;;5.00;99.90;;;;;;5033578;28;22052;-70
2021/12/03 09:46:38;;;;;;;6.50;5.20;;;5.10;99.90;;;;;;5032206;28;20424;-69
2021/12/03 09:52:27;;;;;;;12.77;5.70;;;5.10;99.90;;;;;;5032966;28;20410;-70
2021/12/03 09:57:36;;;;;;;8.50;4.80;;;5.10;99.90;;;;;;4955341;29;20956;-71
2021/12/03 10:00:28;;;;;;;8.17;5.47;;;5.20;99.90;;;;;;4955605;29;20568;-71
2021/12/03 10:03:09;;;;;;;7.30;4.30;;;5.20;99.90;;;;;;4960554;28;20455;-69
2021/12/03 10:13:24;;;;;;;9.50;4.80;;;5.20;99.90;;;;;;4955358;29;20623;-69
2021/12/03 10:27:02;;;;;;;6.17;3.83;;;5.20;99.90;;;;;;4954935;29;20921;-70
2021/12/03 10:32:39;;;;;;;6.87;3.90;;;5.40;99.90;;;;;;5036622;28;20448;-70
2021/12/03 10:40:29;;;;;;;13.70;4.43;;;5.50;99.90;;;;;;5035685;28;20429;-69
2021/12/03 10:43:12;;;;;;;8.30;4.00;;;5.60;99.90;;;;;;5054128;28;20436;-70
2021/12/03 10:48:30;;;;;;;9.63;4.30;;;5.40;99.90;;;;;;5053732;28;20794;-70
2021/12/03 10:51:14;;;;;;;8.20;4.30;;;5.50;99.90;;;;;;5052903;28;20412;-70
2021/12/03 10:53:52;;;;;;;6.57;3.87;;;5.60;99.90;;;;;;5055141;28;20419;-69
2021/12/03 10:56:54;;;;;;;5.80;4.20;;;5.60;99.90;;;;;;5053781;28;20416;-70
2021/12/03 11:08:01;;;;;;;7.57;4.60;;;5.70;99.90;;;;;;5075415;28;20434;-71
2021/12/03 11:14:11;;;;;;;7.73;3.73;;;5.90;99.90;;;;;;5050775;28;20429;-70
2021/12/03 11:30:11;;;;;;;7.83;3.30;;;5.70;99.90;;;;;;5034023;28;20433;-71
2021/12/03 11:38:43;;;;;;;11.20;3.90;;;5.60;99.90;;;;;;5034614;28;20401;-70
2021/12/03 11:58:46;;;;;;;9.80;3.97;;;6.00;99.90;;;;;;5033699;28;20432;-70
2021/12/03 12:30:20;;;;;;;7.87;3.40;;;5.90;99.90;;;;;;5052700;28;20441;-70
2021/12/03 12:44:07;;;;;;;9.60;3.87;;;6.00;99.90;;;;;;5033777;28;20488;-69
2021/12/03 13:17:00;;;;;;;8.23;4.57;;;5.80;99.90;;;;;;4991262;28;21067;-70
2021/12/03 13:19:28;;;;;;;5.47;4.20;;;5.70;99.90;;;;;;4989228;28;20462;-71
2021/12/03 13:27:39;;;;;;;5.67;3.90;;;5.90;99.90;;;;;;4971681;28;20426;-70
2021/12/03 14:08:56;;;;;;;4.87;3.87;;;5.70;99.90;;;;;;5012992;28;20465;-71
2021/12/03 14:20:55;;;;;;;6.20;3.53;;;5.80;99.90;;;;;;4993413;28;20443;-71
2021/12/03 14:24:46;;;;;;;9.87;4.40;;;5.80;99.90;;;;;;4993730;28;20467;-70
2021/12/03 14:39:11;;;;;;;6.17;4.00;;;5.80;99.90;;;;;;5034262;28;20432;-69
2021/12/03 14:47:09;;;;;;;6.50;3.73;;;5.70;99.90;;;;;;5034317;28;20437;-70
2021/12/03 14:55:39;;;;;;;5.60;3.83;;;5.70;99.90;;;;;;5034727;28;20486;-70
2021/12/03 14:58:11;;;;;;;3.90;3.60;;;5.60;99.90;;;;;;5035084;28;20864;-70
2021/12/03 15:32:38;;;;;;;5.07;4.00;;;5.10;99.90;;;;;;5041461;28;21023;-70
2021/12/03 15:56:45;;;;;;;6.00;4.60;;;5.00;99.90;;;;;;5027939;28;20467;-69
2021/12/03 16:04:51;;;;;;;5.30;4.23;;;5.00;99.90;;;;;;4967315;28;20485;-70
2021/12/03 16:07:29;;;;;;;6.80;4.20;;;5.10;99.90;;;;;;4947566;28;20440;-70
2021/12/03 16:15:21;;;;;;;7.20;5.10;;;5.10;99.90;;;;;;4966170;28;20496;-70
2021/12/03 16:20:52;;;;;;;8.53;5.10;;;5.10;99.90;;;;;;4958828;28;20432;-69
2021/12/03 16:23:31;;;;;;;5.17;4.40;;;5.00;99.90;;;;;;4966892;28;20574;-69
2021/12/03 16:26:09;;;;;;;5.13;4.10;;;5.20;99.90;;;;;;4950721;28;20463;-70
2021/12/03 16:52:30;;;;;;;6.60;4.10;;;5.10;99.90;;;;;;5027903;28;20458;-71
2021/12/03 16:54:57;;;;;;;5.30;4.40;;;5.00;99.90;;;;;;5028280;28;20489;-70
2021/12/03 16:57:36;;;;;;;6.30;4.90;;;5.10;99.90;;;;;;5009920;28;20509;-71
2021/12/03 17:00:17;;;;;;;4.70;3.87;;;5.10;99.90;;;;;;5028527;28;20479;-68
2021/12/03 17:03:02;;;;;;;4.33;3.93;;;5.10;99.90;;;;;;5030648;28;20456;-70
2021/12/03 17:11:14;;;;;;;5.90;4.70;;;5.00;99.90;;;;;;5031837;28;20424;-69
2021/12/03 17:13:50;;;;;;;4.90;4.23;;;5.00;99.90;;;;;;5029948;28;21103;-70
2021/12/03 17:16:55;;;;;;;6.63;4.73;;;4.90;99.90;;;;;;5024771;28;20495;-71
2021/12/03 17:28:36;;;;;;;7.67;5.43;;;5.00;99.90;;;;;;5030403;28;20991;-69
2021/12/03 17:30:33;;;;;;;6.53;5.83;;;5.00;99.90;;;;;;5027388;28;20515;-69
2021/12/03 17:47:07;;;;;;;5.33;4.83;;;5.00;99.90;;;;;;5022641;28;20876;-68
2021/12/03 17:55:09;;;;;;;6.67;6.07;;;5.10;99.90;;;;;;5030159;28;20530;-70
2021/12/03 18:01:07;;;;;;;9.13;5.60;;;5.10;99.90;;;;;;5010357;28;20790;-70
2021/12/03 18:04:04;;;;;;;11.93;5.90;;;5.10;99.90;;;;;;5002349;28;20461;-70
2021/12/03 18:06:16;;;;;;;6.93;6.23;;;5.00;99.90;;;;;;5001933;28;20796;-70
2021/12/03 18:09:00;;;;;;;5.73;5.20;;;5.10;99.90;;;;;;5015008;28;20490;-70
2021/12/03 18:11:52;;;;;;;6.93;5.23;;;5.10;99.90;;;;;;5030791;28;20855;-70
2021/12/03 18:44:01;;;;;;;7.97;6.50;;;5.10;99.90;;;;;;5027072;28;20468;-70
2021/12/03 18:51:46;;;;;;;6.63;5.87;;;5.10;99.90;;;;;;5033090;28;20268;-70
2021/12/03 18:56:52;;;;;;;6.50;5.43;;;5.10;99.90;;;;;;5032873;28;20433;-70
2021/12/03 18:59:18;;;;;;;6.63;5.87;;;5.00;99.90;;;;;;5014222;28;20507;-71
2021/12/03 19:01:44;;;;;;;5.30;4.90;;;5.00;99.90;;;;;;5032407;28;20434;-70
2021/12/03 19:04:18;;;;;;;6.47;5.77;;;5.10;99.90;;;;;;5032013;28;20481;-70
2021/12/03 19:09:16;;;;;;;6.13;5.50;;;5.10;99.90;;;;;;5031450;28;20464;-71
2021/12/03 19:14:10;;;;;;;6.50;5.90;;;5.00;99.90;;;;;;5031567;28;20518;-69
2021/12/03 19:16:36;;;;;;;6.20;5.70;;;5.00;99.90;;;;;;5031134;28;21021;-71
2021/12/03 19:19:04;;;;;;;7.30;5.73;;;5.00;99.90;;;;;;5032717;28;20282;-71
2021/12/03 19:21:37;;;;;;;6.20;5.60;;;5.00;99.90;;;;;;5031757;28;20206;-71
2021/12/03 19:24:03;;;;;;;8.33;5.77;;;5.10;99.90;;;;;;5032628;28;20465;-71
2021/12/03 19:26:32;;;;;;;7.50;6.10;;;5.10;99.90;;;;;;5029705;28;20438;-71
2021/12/03 19:29:00;;;;;;;7.17;6.67;;;5.10;99.90;;;;;;5032494;28;20414;-71
2021/12/03 19:31:26;;;;;;;6.63;5.77;;;5.10;99.90;;;;;;5032628;28;20500;-71
2021/12/03 19:33:52;;;;;;;6.27;5.50;;;5.10;99.90;;;;;;5029531;28;20434;-71
2021/12/03 19:36:23;;;;;;;6.40;5.90;;;5.10;99.90;;;;;;5032142;28;20421;-71
2021/12/03 19:38:50;;;;;;;9.37;5.90;;;5.10;99.90;;;;;;5032057;28;20417;-70